Time;durP1;ratioP1;P1;durP2;ratioP2;P2;SDS_P1;SDS_P2;PMS_P1;PMS_P2;Temp;Humidity;BMP_temperature;BMP_pressure;BME280_temperature;BME280_humidity;BME280_pressure;Samples;Min_cycle;Max_cycle;Signal;HPM_P1;HPM_P2
2024/01/02 00:01:00;;;;;;;11.70;3.13;;;;;;;4.48;96.84;99803.00;4972131;28;20585;-83
2024/01/02 00:03:27;;;;;;;7.73;2.43;;;;;;;4.47;97.00;99803.97;4971119;28;20697;-84
2024/01/02 00:05:53;;;;;;;13.97;3.33;;;;;;;4.45;97.06;99803.19;4966596;28;20613;-81
2024/01/02 00:08:19;;;;;;;6.07;2.13;;;;;;;4.44;97.36;99790.94;4970192;28;20212;-82
2024/01/02 00:10:46;;;;;;;8.37;2.50;;;;;;;4.42;97.92;99788.38;4971581;28;20217;-81
2024/01/02 00:13:14;;;;;;;12.10;3.07;;;;;;;4.40;97.86;99786.75;4963264;28;20212;-82
2024/01/02 00:15:40;;;;;;;10.70;2.83;;;;;;;4.38;98.23;99775.44;4962467;28;20236;-82
2024/01/02 00:18:07;;;;;;;7.67;2.37;;;;;;;4.37;98.27;99768.44;4964871;28;20213;-82
2024/01/02 00:20:33;;;;;;;8.30;2.20;;;;;;;4.34;98.40;99758.06;4969891;28;20212;-84
2024/01/02 00:23:00;;;;;;;11.17;2.97;;;;;;;4.30;99.10;99762.63;4964144;28;20212;-84
2024/01/02 00:25:26;;;;;;;11.53;3.53;;;;;;;4.30;99.12;99759.16;4960937;28;20232;-81
2024/01/02 00:27:53;;;;;;;12.60;3.50;;;;;;;4.27;99.37;99747.00;4972218;28;20209;-83
2024/01/02 00:30:21;;;;;;;9.03;2.47;;;;;;;4.26;99.31;99737.38;4974139;28;20445;-83
2024/01/02 00:32:48;;;;;;;14.43;2.13;;;;;;;4.26;99.86;99736.53;4977188;28;20228;-83
2024/01/02 00:35:16;;;;;;;10.10;2.70;;;;;;;4.24;99.89;99741.03;4969616;28;20263;-83
2024/01/02 00:37:42;;;;;;;14.67;3.13;;;;;;;4.25;100.00;99740.09;4968741;28;20273;-83
2024/01/02 00:40:10;;;;;;;7.57;2.30;;;;;;;4.24;100.00;99735.75;4965045;28;20236;-82
2024/01/02 00:42:37;;;;;;;9.40;2.20;;;;;;;4.29;100.00;99733.75;4965459;28;20288;-83
2024/01/02 00:45:05;;;;;;;9.77;3.10;;;;;;;4.26;100.00;99726.00;4967027;28;20709;-83
2024/01/02 00:47:33;;;;;;;6.67;2.37;;;;;;;4.28;100.00;99726.75;4967939;28;20210;-81
2024/01/02 00:49:59;;;;;;;11.27;2.23;;;;;;;4.33;100.00;99724.72;4963056;28;20209;-82
2024/01/02 00:52:25;;;;;;;9.17;2.97;;;;;;;4.34;100.00;99714.09;4969675;28;20240;-80
2024/01/02 00:54:52;;;;;;;6.50;2.17;;;;;;;4.34;100.00;99710.59;4967720;28;20220;-81
2024/01/02 00:57:18;;;;;;;9.23;2.17;;;;;;;4.31;100.00;99706.34;4964920;28;20212;-82
2024/01/02 00:59:45;;;;;;;8.17;2.13;;;;;;;4.33;100.00;99701.84;4968356;28;20212;-83
2024/01/02 01:02:12;;;;;;;6.43;2.23;;;;;;;4.33;100.00;99699.22;4963710;28;20328;-83
2024/01/02 01:04:43;;;;;;;10.87;1.87;;;;;;;4.30;100.00;99695.91;4975060;28;20717;-81
2024/01/02 01:07:10;;;;;;;8.70;2.40;;;;;;;4.30;100.00;99693.28;4965668;28;20295;-82
2024/01/02 01:09:37;;;;;;;5.90;1.77;;;;;;;4.32;100.00;99688.75;4971192;28;20208;-82
2024/01/02 01:12:04;;;;;;;12.03;2.90;;;;;;;4.35;100.00;99685.94;4969610;28;20232;-81
2024/01/02 01:14:31;;;;;;;7.43;1.97;;;;;;;4.36;100.00;99687.66;4967861;28;20295;-81
2024/01/02 01:16:58;;;;;;;8.23;2.83;;;;;;;4.39;100.00;99682.22;4969363;28;20208;-80
2024/01/02 01:19:25;;;;;;;7.60;2.00;;;;;;;4.40;100.00;99681.28;4966993;28;20212;-82
2024/01/02 01:21:53;;;;;;;13.57;2.80;;;;;;;4.42;100.00;99675.00;4973637;28;20224;-82
2024/01/02 01:24:20;;;;;;;5.10;1.93;;;;;;;4.43;100.00;99666.16;4967722;28;20206;-82
2024/01/02 01:26:46;;;;;;;9.70;1.90;;;;;;;4.44;100.00;99670.50;4971883;28;20225;-83
2024/01/02 01:29:13;;;;;;;9.27;2.13;;;;;;;4.43;100.00;99665.31;4968453;28;20295;-83
2024/01/02 01:31:39;;;;;;;10.27;2.83;;;;;;;4.49;100.00;99659.69;4970130;28;20729;-81
2024/01/02 01:34:06;;;;;;;8.07;2.10;;;;;;;4.48;100.00;99660.63;4975404;28;20208;-82
2024/01/02 01:36:32;;;;;;;8.03;1.70;;;;;;;4.49;100.00;99651.78;4976305;28;20224;-84
2024/01/02 01:39:00;;;;;;;6.83;2.17;;;;;;;4.49;100.00;99657.06;4964011;28;20204;-82
2024/01/02 01:41:27;;;;;;;8.70;2.23;;;;;;;4.54;100.00;99652.41;4976214;28;20287;-83
2024/01/02 01:43:53;;;;;;;7.87;1.83;;;;;;;4.57;100.00;99649.59;4960005;28;20200;-82
2024/01/02 01:46:20;;;;;;;8.10;2.20;;;;;;;4.57;100.00;99641.69;4962355;28;20868;-81
2024/01/02 01:48:46;;;;;;;7.17;1.73;;;;;;;4.63;100.00;99638.72;4969311;28;20335;-82
2024/01/02 01:51:13;;;;;;;10.23;2.33;;;;;;;4.64;100.00;99635.16;4969013;28;20665;-82
2024/01/02 01:53:40;;;;;;;9.73;2.37;;;;;;;4.68;100.00;99625.25;4961637;28;20282;-82
2024/01/02 01:56:09;;;;;;;9.77;2.40;;;;;;;4.70;100.00;99611.06;4969316;28;20220;-82
2024/01/02 01:58:35;;;;;;;8.73;1.77;;;;;;;4.71;100.00;99610.13;4972016;28;20612;-82
2024/01/02 02:01:03;;;;;;;7.93;1.97;;;;;;;4.73;100.00;99600.34;4971924;28;20212;-81
2024/01/02 02:03:31;;;;;;;11.90;2.27;;;;;;;4.76;100.00;99601.97;4971137;28;20215;-81
2024/01/02 02:05:58;;;;;;;7.57;2.20;;;;;;;4.77;100.00;99598.38;4963848;28;20705;-82
2024/01/02 02:08:25;;;;;;;8.07;1.97;;;;;;;4.77;100.00;99587.84;4973461;28;20220;-81
2024/01/02 02:10:52;;;;;;;9.63;2.03;;;;;;;4.78;100.00;99582.47;4969942;28;20792;-80
2024/01/02 02:13:21;;;;;;;8.37;2.53;;;;;;;4.75;100.00;99580.00;4971237;28;20238;-79
2024/01/02 02:15:48;;;;;;;8.77;1.70;;;;;;;4.77;100.00;99570.22;4966565;28;20236;-82
2024/01/02 02:18:15;;;;;;;8.83;1.90;;;;;;;4.83;100.00;99566.41;4963894;28;20226;-83
2024/01/02 02:20:42;;;;;;;8.03;2.93;;;;;;;4.82;100.00;99560.28;4970219;28;20214;-81
2024/01/02 02:23:10;;;;;;;6.40;1.83;;;;;;;4.84;100.00;99553.09;4968049;28;20212;-81
2024/01/02 02:25:36;;;;;;;8.07;2.33;;;;;;;4.89;100.00;99542.28;4971765;28;20220;-81
2024/01/02 02:28:03;;;;;;;7.83;1.40;;;;;;;4.91;100.00;99540.41;4969371;28;20215;-81
2024/01/02 02:30:30;;;;;;;4.20;1.70;;;;;;;4.96;100.00;99525.16;4968689;28;20291;-83
2024/01/02 02:32:56;;;;;;;7.03;1.67;;;;;;;5.00;100.00;99526.69;4969769;28;20247;-82
2024/01/02 02:35:23;;;;;;;5.07;1.50;;;;;;;5.05;100.00;99513.22;4968019;28;20246;-81
2024/01/02 02:37:49;;;;;;;10.37;2.37;;;;;;;5.08;100.00;99507.75;4967813;28;20219;-81
2024/01/02 02:40:17;;;;;;;7.83;2.23;;;;;;;5.11;100.00;99503.16;4970017;28;20227;-83
2024/01/02 02:42:43;;;;;;;6.67;1.83;;;;;;;5.12;100.00;99506.66;4976522;28;20223;-82
2024/01/02 02:45:10;;;;;;;5.90;1.57;;;;;;;5.13;100.00;99488.09;4972834;28;20694;-83
2024/01/02 02:47:37;;;;;;;7.30;1.90;;;;;;;5.19;100.00;99489.53;4978970;28;20683;-83
2024/01/02 02:50:05;;;;;;;6.77;2.00;;;;;;;5.19;100.00;99478.97;4974037;28;20241;-83
2024/01/02 02:52:32;;;;;;;5.33;1.53;;;;;;;5.25;100.00;99478.56;4974150;28;20236;-82
2024/01/02 02:54:58;;;;;;;7.47;1.90;;;;;;;5.26;100.00;99467.06;4976571;28;20232;-82
2024/01/02 02:57:26;;;;;;;8.30;2.43;;;;;;;5.26;100.00;99453.88;4970611;28;20842;-81
2024/01/02 02:59:53;;;;;;;7.07;1.50;;;;;;;5.31;100.00;99451.81;4974731;28;20213;-81
2024/01/02 03:02:19;;;;;;;5.60;1.87;;;;;;;5.32;100.00;99442.94;4973580;28;20759;-82
2024/01/02 03:04:46;;;;;;;8.60;1.90;;;;;;;5.35;100.00;99437.50;4974921;28;20410;-82
2024/01/02 03:07:12;;;;;;;6.23;1.73;;;;;;;5.39;100.00;99432.84;4981127;28;20851;-80
2024/01/02 03:09:43;;;;;;;7.70;2.07;;;;;;;5.42;100.00;99422.94;4965592;28;20219;-81
2024/01/02 03:12:10;;;;;;;9.13;2.07;;;;;;;5.45;100.00;99424.56;4968287;28;20235;-81
2024/01/02 03:14:38;;;;;;;6.80;1.90;;;;;;;5.47;100.00;99415.59;4964089;28;20750;-83
2024/01/02 03:17:05;;;;;;;5.60;1.80;;;;;;;5.50;100.00;99412.78;4969044;28;20227;-81
2024/01/02 03:19:32;;;;;;;4.40;1.50;;;;;;;5.52;100.00;99410.03;4972764;28;20287;-83
2024/01/02 03:21:58;;;;;;;6.03;1.70;;;;;;;5.51;100.00;99400.41;4970192;28;20746;-80
2024/01/02 03:24:25;;;;;;;5.20;2.20;;;;;;;5.55;100.00;99386.91;4963275;28;20236;-80
2024/01/02 03:26:51;;;;;;;5.40;2.20;;;;;;;5.61;100.00;99380.41;4959993;28;21570;-81
2024/01/02 03:29:18;;;;;;;5.53;1.83;;;;;;;5.63;100.00;99375.03;4958132;28;20209;-82
2024/01/02 03:31:45;;;;;;;4.83;1.53;;;;;;;5.66;100.00;99378.31;4963281;28;20211;-82
2024/01/02 03:34:12;;;;;;;6.93;1.70;;;;;;;5.67;100.00;99374.75;4969483;28;20204;-81
2024/01/02 03:36:38;;;;;;;8.13;1.30;;;;;;;5.71;100.00;99356.91;4972532;28;20598;-81
2024/01/02 03:39:05;;;;;;;3.60;1.50;;;;;;;5.71;100.00;99354.28;4973769;28;21420;-82
2024/01/02 03:41:32;;;;;;;4.63;1.60;;;;;;;5.73;100.00;99347.09;4971157;28;20724;-81
2024/01/02 03:43:58;;;;;;;7.17;1.57;;;;;;;5.76;100.00;99341.59;4974210;28;20575;-81
2024/01/02 03:46:24;;;;;;;6.77;1.77;;;;;;;5.76;100.00;99341.59;4969771;28;20232;-78
2024/01/02 03:48:52;;;;;;;7.13;1.70;;;;;;;5.75;100.00;99326.69;4959393;28;20209;-82
2024/01/02 03:51:19;;;;;;;4.83;1.50;;;;;;;5.77;100.00;99322.16;4963628;28;20227;-82
2024/01/02 03:53:45;;;;;;;7.57;2.20;;;;;;;5.75;100.00;99316.13;4972944;28;20240;-81
2024/01/02 03:56:12;;;;;;;5.83;1.83;;;;;;;5.75;100.00;99311.69;4975120;28;20244;-82
2024/01/02 03:58:40;;;;;;;4.67;1.50;;;;;;;5.79;100.00;99301.78;4972454;28;20217;-82
2024/01/02 04:01:07;;;;;;;4.23;1.77;;;;;;;5.80;100.00;99296.38;4964148;28;20198;-80
2024/01/02 04:03:34;;;;;;;5.10;1.53;;;;;;;5.82;100.00;99291.00;4961015;28;20205;-82
2024/01/02 04:06:01;;;;;;;6.67;1.67;;;;;;;5.84;100.00;99274.13;4969673;28;20240;-80
2024/01/02 04:08:28;;;;;;;5.23;1.93;;;;;;;5.85;100.00;99277.59;4973055;28;20582;-80
2024/01/02 04:10:54;;;;;;;9.20;2.20;;;;;;;5.88;100.00;99264.19;4969402;28;20204;-79
2024/01/02 04:13:23;;;;;;;7.77;1.67;;;;;;;5.86;100.00;99261.66;4969312;28;20240;-81
2024/01/02 04:15:49;;;;;;;8.57;2.00;;;;;;;5.87;100.00;99254.56;4967510;28;20320;-80
2024/01/02 04:18:15;;;;;;;2.67;1.30;;;;;;;5.88;100.00;99243.94;4966546;28;20208;-81
2024/01/02 04:20:42;;;;;;;8.57;2.47;;;;;;;5.88;100.00;99236.00;4975288;28;20211;-81
2024/01/02 04:23:10;;;;;;;5.80;1.30;;;;;;;5.90;100.00;99228.81;4978816;28;20216;-81
2024/01/02 04:25:35;;;;;;;3.33;1.43;;;;;;;5.90;100.00;99212.97;4968737;28;20249;-81
2024/01/02 04:28:02;;;;;;;6.23;1.40;;;;;;;5.90;100.00;99207.69;4963051;28;20608;-80
2024/01/02 04:30:28;;;;;;;3.33;1.50;;;;;;;5.90;100.00;99202.41;4960042;28;20574;-82
2024/01/02 04:32:55;;;;;;;4.47;1.50;;;;;;;5.92;100.00;99194.34;4966503;28;20225;-81
2024/01/02 04:35:21;;;;;;;3.53;1.20;;;;;;;5.92;100.00;99181.97;4967224;28;20227;-81
2024/01/02 04:37:48;;;;;;;5.77;1.20;;;;;;;5.96;100.00;99180.00;4971414;28;20212;-81
2024/01/02 04:40:16;;;;;;;4.97;1.33;;;;;;;5.93;100.00;99174.91;4966555;28;20220;-81
2024/01/02 04:42:42;;;;;;;5.23;1.50;;;;;;;5.90;100.00;99172.50;4964408;28;20207;-81
2024/01/02 04:45:09;;;;;;;7.23;2.13;;;;;;;5.90;100.00;99167.22;4960907;28;20240;-82
2024/01/02 04:47:36;;;;;;;6.63;2.00;;;;;;;5.87;100.00;99154.16;4966903;28;20641;-82
2024/01/02 04:50:04;;;;;;;5.50;1.30;;;;;;;5.85;100.00;99153.41;4968433;28;20220;-81
2024/01/02 04:52:30;;;;;;;5.43;1.50;;;;;;;5.87;100.00;99146.25;4962886;28;20228;-81
2024/01/02 04:54:58;;;;;;;4.30;1.63;;;;;;;5.85;100.00;99130.50;4970655;28;20220;-81
2024/01/02 04:57:26;;;;;;;5.00;1.27;;;;;;;5.84;100.00;99141.16;4970004;28;20213;-81
2024/01/02 04:59:52;;;;;;;4.10;1.47;;;;;;;5.87;100.00;99136.53;4966435;28;20227;-79
2024/01/02 05:02:23;;;;;;;3.83;0.97;;;;;;;5.85;100.00;99129.66;4970082;28;20219;-81
2024/01/02 05:04:50;;;;;;;4.20;2.17;;;;;;;5.86;100.00;99118.13;4969048;28;20208;-81
2024/01/02 05:07:16;;;;;;;1.73;1.20;;;;;;;5.84;100.00;99112.09;4969740;28;20212;-78
2024/01/02 05:09:43;;;;;;;5.07;1.50;;;;;;;5.79;100.00;99109.75;4961585;28;20960;-81
2024/01/02 05:12:09;;;;;;;2.20;1.00;;;;;;;5.80;100.00;99105.31;4969530;28;20797;-83
2024/01/02 05:14:37;;;;;;;3.50;1.33;;;;;;;5.81;100.00;99102.59;4971643;28;20264;-81
2024/01/02 05:17:03;;;;;;;2.87;0.80;;;;;;;5.85;100.00;99090.88;4971137;28;20204;-82
2024/01/02 05:19:30;;;;;;;2.97;1.00;;;;;;;5.83;100.00;99081.34;4967694;28;20200;-81
2024/01/02 05:21:57;;;;;;;3.40;1.37;;;;;;;5.84;100.00;99083.03;4966733;28;20211;-82
2024/01/02 05:24:23;;;;;;;3.47;1.37;;;;;;;5.81;100.00;99086.72;4969125;28;20208;-80
2024/01/02 05:26:50;;;;;;;2.73;1.40;;;;;;;5.82;100.00;99077.84;4967742;28;20240;-81
2024/01/02 05:29:16;;;;;;;5.23;1.67;;;;;;;5.81;100.00;99072.69;4967131;28;20207;-82
2024/01/02 05:31:44;;;;;;;1.90;0.80;;;;;;;5.85;100.00;99066.25;4964710;28;20211;-79
2024/01/02 05:34:10;;;;;;;2.60;1.70;;;;;;;5.82;100.00;99061.16;4969187;28;20228;-81
2024/01/02 05:36:37;;;;;;;3.53;1.67;;;;;;;5.81;100.00;99070.03;4966047;28;20728;-80
2024/01/02 05:39:03;;;;;;;1.50;1.00;;;;;;;5.81;100.00;99060.31;4964123;28;20592;-80
2024/01/02 05:41:30;;;;;;;1.13;0.97;;;;;;;5.85;100.00;99051.22;4971117;28;20208;-81
2024/01/02 05:43:56;;;;;;;1.20;1.00;;;;;;;5.84;100.00;99052.19;4970932;28;20204;-79
2024/01/02 05:46:23;;;;;;;3.13;0.70;;;;;;;5.86;100.00;99036.22;4963802;28;20233;-81
2024/01/02 05:48:50;;;;;;;0.83;0.70;;;;;;;5.87;100.00;99030.00;4972473;28;20208;-81
2024/01/02 05:51:18;;;;;;;1.47;0.60;;;;;;;5.85;100.00;99016.03;4969630;28;20653;-82
2024/01/02 05:53:45;;;;;;;1.27;0.60;;;;;;;5.85;100.00;99018.69;4967625;28;20304;-81
2024/01/02 05:56:12;;;;;;;0.43;0.40;;;;;;;5.81;100.00;99017.19;4970822;28;20605;-81
2024/01/02 05:58:38;;;;;;;3.03;0.60;;;;;;;5.81;100.00;99025.13;4973989;28;20216;-79
2024/01/02 06:01:05;;;;;;;1.80;0.60;;;;;;;5.83;100.00;99020.59;4973601;28;20212;-82
2024/01/02 06:03:31;;;;;;;0.97;0.43;;;;;;;5.84;100.00;99011.72;4965463;28;20212;-81
2024/01/02 06:05:59;;;;;;;1.37;0.40;;;;;;;5.80;100.00;99010.22;4967664;28;20248;-81
2024/01/02 06:08:26;;;;;;;1.17;0.30;;;;;;;5.80;100.00;99000.50;4971902;28;20578;-80
2024/01/02 06:10:51;;;;;;;1.00;0.50;;;;;;;5.79;100.00;98992.69;4969644;28;20204;-80
2024/01/02 06:13:18;;;;;;;1.37;0.50;;;;;;;5.77;100.00;98984.03;4972849;28;20594;-81
2024/01/02 06:15:44;;;;;;;1.20;0.50;;;;;;;5.75;100.00;98978.00;4968243;28;20232;-81
2024/01/02 06:18:11;;;;;;;0.93;0.40;;;;;;;5.73;100.00;98975.47;4966303;28;20208;-80
2024/01/02 06:20:37;;;;;;;1.23;0.30;;;;;;;5.75;100.00;98978.84;4967012;28;20232;-80
2024/01/02 06:23:05;;;;;;;1.43;0.70;;;;;;;5.74;100.00;98966.59;4973606;28;20253;-79
2024/01/02 06:25:32;;;;;;;0.67;0.40;;;;;;;5.73;100.00;98966.72;4961561;28;20733;-80
2024/01/02 06:27:58;;;;;;;0.87;0.40;;;;;;;5.69;100.00;98971.38;4965927;28;20208;-81
2024/01/02 06:30:25;;;;;;;1.17;0.47;;;;;;;5.68;100.00;98960.91;4970737;28;20208;-78
2024/01/02 06:32:51;;;;;;;1.57;1.47;;;;;;;5.68;100.00;98956.47;4960393;28;20213;-81
2024/01/02 06:35:18;;;;;;;1.60;0.50;;;;;;;5.69;100.00;98946.75;4969320;28;20760;-80
2024/01/02 06:37:44;;;;;;;0.67;0.30;;;;;;;5.69;100.00;98944.09;4963566;28;20780;-80
2024/01/02 06:40:13;;;;;;;1.00;0.30;;;;;;;5.67;100.00;98946.00;4963204;28;20587;-80
2024/01/02 06:42:39;;;;;;;0.37;0.37;;;;;;;5.68;100.00;98919.50;4969585;28;20585;-80
2024/01/02 06:45:07;;;;;;;0.80;0.40;;;;;;;5.68;100.00;98923.94;4966791;28;20304;-80
2024/01/02 06:47:34;;;;;;;0.20;0.20;;;;;;;5.66;100.00;98902.91;4960172;28;20220;-81
2024/01/02 06:50:00;;;;;;;0.47;0.33;;;;;;;5.65;100.00;98910.94;4974913;28;20204;-80
2024/01/02 06:52:26;;;;;;;0.23;0.20;;;;;;;5.68;100.00;98914.22;4960921;28;20682;-81
2024/01/02 06:54:53;;;;;;;1.77;0.40;;;;;;;5.69;100.00;98917.69;4960850;28;20223;-81
2024/01/02 06:57:21;;;;;;;0.23;0.17;;;;;;;5.69;100.00;98915.06;4968161;28;20674;-82
2024/01/02 06:59:48;;;;;;;4.00;0.40;;;;;;;5.67;100.00;98919.59;4968146;28;20223;-80
2024/01/02 07:02:14;;;;;;;0.90;0.30;;;;;;;5.66;100.00;98916.13;4971944;28;20668;-81
2024/01/02 07:04:40;;;;;;;0.53;0.20;;;;;;;5.66;100.00;98915.28;4965006;28;20207;-81
2024/01/02 07:07:09;;;;;;;0.53;0.20;;;;;;;5.65;100.00;98913.56;4964059;28;20364;-82
2024/01/02 07:09:35;;;;;;;0.40;0.20;;;;;;;5.62;100.00;98909.34;4966812;28;20212;-82
2024/01/02 07:12:03;;;;;;;0.20;0.10;;;;;;;5.58;100.00;98902.59;4967823;28;20216;-82
2024/01/02 07:14:30;;;;;;;0.30;0.10;;;;;;;5.54;100.00;98894.06;4962419;28;20287;-82
2024/01/02 07:16:57;;;;;;;0.40;0.20;;;;;;;5.52;100.00;98892.47;4964697;28;20227;-84
2024/01/02 07:19:23;;;;;;;1.00;0.20;;;;;;;5.50;100.00;98886.47;4958706;28;20200;-82
2024/01/02 07:21:50;;;;;;;0.80;0.20;;;;;;;5.45;100.00;98878.00;4965784;28;20227;-81
2024/01/02 07:24:16;;;;;;;0.20;0.20;;;;;;;5.42;100.00;98880.88;4968576;28;20258;-83
2024/01/02 07:26:43;;;;;;;0.00;0.00;;;;;;;5.42;100.00;98873.78;4970060;28;20240;-80
2024/01/02 07:29:09;;;;;;;0.20;0.10;;;;;;;5.38;100.00;98874.94;4960921;28;20243;-83
2024/01/02 07:31:37;;;;;;;0.80;0.20;;;;;;;5.33;100.00;98879.72;4971877;28;20204;-81
2024/01/02 07:34:05;;;;;;;1.50;0.40;;;;;;;5.32;100.00;98871.91;4965468;28;20228;-82
2024/01/02 07:36:31;;;;;;;0.10;0.10;;;;;;;5.28;100.00;98863.38;4969386;28;20223;-80
2024/01/02 07:38:58;;;;;;;0.10;0.10;;;;;;;5.27;100.00;98853.75;4961086;28;20565;-82
2024/01/02 07:41:24;;;;;;;0.10;0.10;;;;;;;5.23;100.00;98853.13;4966088;28;20581;-82
2024/01/02 07:43:51;;;;;;;0.70;0.10;;;;;;;5.23;100.00;98847.00;4967771;28;20223;-83
2024/01/02 07:46:17;;;;;;;0.00;0.00;;;;;;;5.22;100.00;98847.94;4967257;28;20234;-82
2024/01/02 07:48:45;;;;;;;0.13;0.10;;;;;;;5.16;100.00;98841.31;4966847;28;20216;-81
2024/01/02 07:51:12;;;;;;;1.30;0.20;;;;;;;5.13;100.00;98830.97;4968748;28;20275;-81
2024/01/02 07:53:38;;;;;;;0.30;0.10;;;;;;;5.10;100.00;98814.50;4969057;28;20236;-83
2024/01/02 07:56:05;;;;;;;0.03;0.03;;;;;;;5.06;100.00;98802.47;4964517;28;20265;-80
2024/01/02 07:58:32;;;;;;;0.10;0.10;;;;;;;4.97;100.00;98806.63;4965538;28;20231;-81
2024/01/02 08:00:58;;;;;;;0.10;0.10;;;;;;;4.94;100.00;98803.34;4965388;28;20205;-80
2024/01/02 08:03:25;;;;;;;0.40;0.10;;;;;;;4.94;100.00;98808.63;4967414;28;20220;-80
2024/01/02 08:05:53;;;;;;;0.10;0.10;;;;;;;4.91;100.00;98793.00;4968818;28;20224;-82
2024/01/02 08:08:19;;;;;;;0.47;0.30;;;;;;;4.88;100.00;98801.97;4969278;28;20696;-81
2024/01/02 08:10:46;;;;;;;0.30;0.30;;;;;;;4.82;100.00;98795.34;4968223;28;20277;-83
2024/01/02 08:13:12;;;;;;;0.50;0.50;;;;;;;4.79;100.00;98779.72;4967715;28;20217;-81
2024/01/02 08:15:39;;;;;;;1.63;1.03;;;;;;;4.77;100.00;98778.97;4965027;28;20621;-81
2024/01/02 08:18:06;;;;;;;1.60;1.00;;;;;;;4.72;100.00;98767.06;4971734;28;20607;-81
2024/01/02 08:20:33;;;;;;;1.17;0.40;;;;;;;4.70;100.00;98750.50;4971332;28;20216;-83
2024/01/02 08:23:01;;;;;;;0.50;0.30;;;;;;;4.73;100.00;98747.66;4968523;28;20216;-81
2024/01/02 08:25:28;;;;;;;0.20;0.20;;;;;;;4.70;100.00;98747.88;4968582;28;20603;-81
2024/01/02 08:27:54;;;;;;;0.70;0.40;;;;;;;4.63;100.00;98738.72;4965524;28;20267;-82
2024/01/02 08:30:21;;;;;;;0.27;0.17;;;;;;;4.62;100.00;98744.94;4967354;28;20219;-81
2024/01/02 08:32:47;;;;;;;0.20;0.20;;;;;;;4.62;100.00;98734.38;4973387;28;20208;-81
2024/01/02 08:35:14;;;;;;;0.50;0.50;;;;;;;4.63;100.00;98726.38;4971777;28;20251;-81
2024/01/02 08:37:41;;;;;;;0.20;0.20;;;;;;;4.62;100.00;98718.56;4974038;28;20213;-81
2024/01/02 08:40:11;;;;;;;0.30;0.30;;;;;;;4.61;100.00;98723.00;4962623;28;20219;-80
2024/01/02 08:42:37;;;;;;;0.87;0.10;;;;;;;4.62;100.00;98714.13;4972081;28;20207;-82
2024/01/02 08:45:05;;;;;;;0.30;0.20;;;;;;;4.61;100.00;98701.91;4975974;28;20227;-82
2024/01/02 08:47:33;;;;;;;0.10;0.10;;;;;;;4.61;100.00;98698.41;4966239;28;20267;-82
2024/01/02 08:49:59;;;;;;;0.73;0.20;;;;;;;4.60;100.00;98689.66;4965619;28;20216;-82
2024/01/02 08:52:26;;;;;;;0.50;0.10;;;;;;;4.61;100.00;98687.88;4972367;28;20212;-81
2024/01/02 08:54:52;;;;;;;0.87;0.20;;;;;;;4.60;100.00;98694.94;4967995;28;20637;-81
2024/01/02 08:57:20;;;;;;;2.33;0.20;;;;;;;4.59;100.00;98693.25;4967192;28;20208;-82
2024/01/02 08:59:46;;;;;;;0.40;0.20;;;;;;;4.61;100.00;98695.78;4968832;28;20231;-82
2024/01/02 09:02:13;;;;;;;0.30;0.20;;;;;;;4.61;100.00;98691.34;4971352;28;20204;-82
2024/01/02 09:04:40;;;;;;;0.20;0.20;;;;;;;4.66;100.00;98675.22;4970113;28;20216;-82
2024/01/02 09:07:06;;;;;;;0.30;0.30;;;;;;;4.69;100.00;98675.81;4965246;28;20209;-81
2024/01/02 09:09:33;;;;;;;0.23;0.20;;;;;;;4.71;100.00;98663.38;4969178;28;20570;-82
2024/01/02 09:11:59;;;;;;;0.70;0.23;;;;;;;4.71;100.00;98668.66;4972729;28;20780;-81
2024/01/02 09:14:27;;;;;;;0.20;0.20;;;;;;;4.71;100.00;98676.56;4968043;28;20590;-82
2024/01/02 09:16:53;;;;;;;0.20;0.10;;;;;;;4.75;100.00;98664.00;4971542;28;20230;-82
2024/01/02 09:19:20;;;;;;;0.13;0.13;;;;;;;4.75;100.00;98651.66;4968205;28;20456;-81
2024/01/02 09:21:46;;;;;;;0.20;0.20;;;;;;;4.75;100.00;98645.53;4967120;28;20209;-81
2024/01/02 09:24:14;;;;;;;0.17;0.17;;;;;;;4.78;100.00;98642.69;4967894;28;20213;-80
2024/01/02 09:26:45;;;;;;;0.80;0.70;;;;;;;4.79;100.00;98652.28;4972430;28;20235;-81
2024/01/02 09:29:11;;;;;;;1.60;0.20;;;;;;;4.79;100.00;98653.13;4961490;28;20220;-81
2024/01/02 09:31:41;;;;;;;0.27;0.20;;;;;;;4.79;100.00;98647.88;4969647;28;20219;-81
2024/01/02 09:34:07;;;;;;;0.20;0.20;;;;;;;4.83;100.00;98648.50;4963193;28;20221;-79
2024/01/02 09:36:34;;;;;;;1.27;0.40;;;;;;;4.87;100.00;98657.84;4971666;28;20243;-81
2024/01/02 09:39:01;;;;;;;0.30;0.30;;;;;;;4.89;100.00;98654.16;4967148;28;20205;-82
2024/01/02 09:41:55;;;;;;;1.17;0.30;;;;;;;4.88;100.00;98654.25;4971319;28;20271;-82
2024/01/02 09:44:37;;;;;;;0.30;0.30;;;;;;;4.91;100.00;98648.78;4970386;28;20251;-81
2024/01/02 09:47:14;;;;;;;0.57;0.30;;;;;;;4.95;100.00;98641.47;4971902;28;20735;-81
2024/01/02 09:49:53;;;;;;;0.60;0.20;;;;;;;5.00;100.00;98645.47;4968289;28;20212;-83
2024/01/02 09:52:48;;;;;;;1.23;0.30;;;;;;;5.04;100.00;98635.53;4970785;28;20204;-82
2024/01/02 09:55:23;;;;;;;0.33;0.30;;;;;;;5.11;100.00;98631.50;4970418;28;20232;-81
2024/01/02 09:57:59;;;;;;;1.03;0.20;;;;;;;5.19;100.00;98639.72;4966624;28;20555;-83
2024/01/02 10:00:36;;;;;;;0.80;0.20;;;;;;;5.24;100.00;98642.84;4966744;28;20235;-81
2024/01/02 10:03:31;;;;;;;1.17;0.30;;;;;;;5.27;100.00;98629.41;4965332;28;20208;-80
2024/01/02 10:06:17;;;;;;;1.07;0.30;;;;;;;5.30;100.00;98621.28;4965968;28;20229;-83
2024/01/02 10:09:04;;;;;;;0.23;0.20;;;;;;;5.38;100.00;98618.88;4966235;28;20208;-82
2024/01/02 10:11:41;;;;;;;0.37;0.10;;;;;;;5.43;100.00;98618.56;4971874;28;20204;-81
2024/01/02 10:14:10;;;;;;;0.20;0.20;;;;;;;5.51;100.00;98621.47;4967791;28;20287;-81
2024/01/02 10:16:39;;;;;;;0.30;0.20;;;;;;;5.55;100.00;98610.56;4967102;28;20286;-82
2024/01/02 10:19:21;;;;;;;0.10;0.10;;;;;;;5.65;100.00;98605.44;4971049;28;20267;-81
2024/01/02 10:21:58;;;;;;;0.87;0.80;;;;;;;5.69;100.00;98612.19;4968836;28;20210;-81
2024/01/02 10:24:35;;;;;;;1.97;1.63;;;;;;;5.75;100.00;98611.69;4963680;28;20220;-81
2024/01/02 10:27:09;;;;;;;0.70;0.70;;;;;;;5.79;100.00;98605.22;4959438;28;20228;-82
2024/01/02 10:29:49;;;;;;;0.50;0.50;;;;;;;5.80;100.00;98596.34;4966156;28;20211;-82
2024/01/02 10:32:24;;;;;;;1.33;1.23;;;;;;;5.86;100.00;98602.97;4969489;28;20212;-81
2024/01/02 10:35:03;;;;;;;0.40;0.40;;;;;;;5.92;100.00;98602.50;4969760;28;20239;-78
2024/01/02 10:37:39;;;;;;;0.33;0.20;;;;;;;5.96;100.00;98598.69;4963819;28;20205;-82
2024/01/02 10:40:12;;;;;;;0.20;0.20;;;;;;;5.99;100.00;98595.81;4968265;28;20278;-82
2024/01/02 10:42:51;;;;;;;0.40;0.30;;;;;;;6.03;100.00;98599.06;4966424;28;20236;-83
2024/01/02 10:45:21;;;;;;;0.87;0.50;;;;;;;6.03;100.00;98594.63;4971102;28;20228;-83
2024/01/02 10:48:05;;;;;;;0.10;0.10;;;;;;;6.06;100.00;98597.03;4973595;28;20224;-83
2024/01/02 10:50:44;;;;;;;1.13;0.40;;;;;;;6.10;100.00;98600.25;4972206;28;20200;-82
2024/01/02 10:53:27;;;;;;;0.67;0.20;;;;;;;6.13;100.00;98598.22;4958578;28;20206;-81
2024/01/02 10:56:05;;;;;;;0.20;0.20;;;;;;;6.16;100.00;98597.97;4963573;28;20607;-80
2024/01/02 10:58:41;;;;;;;0.50;0.50;;;;;;;6.18;100.00;98598.69;4969181;28;20692;-81
2024/01/02 11:01:12;;;;;;;0.20;0.20;;;;;;;6.25;100.00;98601.72;4967426;28;20208;-81
2024/01/02 11:03:47;;;;;;;1.87;0.40;;;;;;;6.32;100.00;98615.28;4966074;28;20258;-81
2024/01/02 11:06:27;;;;;;;0.20;0.20;;;;;;;6.32;100.00;98610.84;4970983;28;20235;-80
2024/01/02 11:09:06;;;;;;;2.00;1.10;;;;;;;6.33;100.00;98607.22;4966983;28;20196;-81
2024/01/02 11:11:37;;;;;;;0.77;0.37;;;;;;;6.34;100.00;98606.28;4963761;28;20744;-82
2024/01/02 11:14:06;;;;;;;1.17;0.97;;;;;;;6.37;100.00;98602.56;4965684;28;20219;-81
2024/01/02 11:16:35;;;;;;;0.23;0.23;;;;;;;6.42;100.00;98590.66;4968398;28;20338;-81
2024/01/02 11:19:04;;;;;;;0.40;0.40;;;;;;;6.42;100.00;98590.66;4970604;28;20204;-82
2024/01/02 11:21:48;;;;;;;2.93;0.40;;;;;;;6.46;100.00;98593.88;4967038;28;20250;-80
2024/01/02 11:24:22;;;;;;;0.27;0.27;;;;;;;6.46;100.00;98585.94;4961502;28;20204;-80
2024/01/02 11:26:52;;;;;;;0.50;0.20;;;;;;;6.49;100.00;98581.25;4967770;28;20679;-80
2024/01/02 11:29:21;;;;;;;0.50;0.20;;;;;;;6.54;100.00;98583.56;4966676;28;20205;-80
2024/01/02 11:31:49;;;;;;;0.27;0.27;;;;;;;6.57;100.00;98567.44;4972296;28;20213;-81
2024/01/02 11:34:33;;;;;;;3.10;0.30;;;;;;;6.58;100.00;98569.13;4967682;28;20212;-82
2024/01/02 11:37:10;;;;;;;0.80;0.30;;;;;;;6.61;100.00;98574.19;4968828;28;20234;-80
2024/01/02 11:39:48;;;;;;;0.40;0.40;;;;;;;6.63;100.00;98572.22;4966597;28;20216;-81